Time;durP1;ratioP1;P1;durP2;ratioP2;P2;SDS_P1;SDS_P2;PMS_P1;PMS_P2;Temp;Humidity;BMP_temperature;BMP_pressure;BME280_temperature;BME280_humidity;BME280_pressure;Samples;Min_cycle;Max_cycle;Signal;HPM_P1;HPM_P2
2023/06/03 00:01:13;;;;;;;7.87;6.97;;;15.60;99.90;;;;;;4955080;29;20401;-49
2023/06/03 00:03:39;;;;;;;8.03;7.10;;;15.40;99.90;;;;;;4954440;29;20176;-50
2023/06/03 00:06:05;;;;;;;9.70;7.30;;;15.50;99.90;;;;;;4955030;29;20235;-48
2023/06/03 00:08:31;;;;;;;7.90;7.10;;;15.50;99.90;;;;;;4954012;28;20471;-50
2023/06/03 00:10:57;;;;;;;7.43;6.83;;;15.60;99.90;;;;;;4954530;28;20416;-52
2023/06/03 00:13:23;;;;;;;6.97;6.20;;;15.50;99.90;;;;;;4953070;29;20252;-50
2023/06/03 00:15:49;;;;;;;7.30;6.70;;;15.30;99.90;;;;;;4954919;29;20191;-49
2023/06/03 00:18:18;;;;;;;8.50;7.13;;;15.30;99.90;;;;;;4954900;28;20191;-49
2023/06/03 00:20:47;;;;;;;8.13;7.40;;;15.30;99.90;;;;;;4954171;28;20416;-49
2023/06/03 00:23:15;;;;;;;7.50;6.90;;;15.20;99.90;;;;;;4953557;29;20423;-50
2023/06/03 00:25:40;;;;;;;8.57;7.10;;;15.30;99.90;;;;;;4953846;29;20843;-50
2023/06/03 00:28:06;;;;;;;8.37;7.47;;;15.30;99.90;;;;;;4954214;29;20558;-49
2023/06/03 00:30:32;;;;;;;9.10;7.70;;;15.30;99.90;;;;;;4954053;29;20207;-50
2023/06/03 00:32:57;;;;;;;6.53;6.03;;;15.30;99.90;;;;;;4954740;29;20543;-48
2023/06/03 00:35:23;;;;;;;8.60;6.80;;;15.30;99.90;;;;;;4954074;29;20186;-48
2023/06/03 00:37:49;;;;;;;8.03;7.20;;;15.20;99.90;;;;;;4954839;29;20189;-48
2023/06/03 00:40:15;;;;;;;8.43;7.70;;;14.80;99.90;;;;;;4954299;29;20180;-51
2023/06/03 00:42:41;;;;;;;10.80;7.70;;;14.80;99.90;;;;;;4953731;29;20174;-50
2023/06/03 00:45:07;;;;;;;10.47;6.70;;;14.70;99.90;;;;;;4954680;29;20406;-49
2023/06/03 00:47:32;;;;;;;9.03;7.37;;;14.70;99.90;;;;;;4952420;29;20548;-48
2023/06/03 00:49:58;;;;;;;12.37;7.43;;;14.70;99.90;;;;;;4954347;29;20458;-51
2023/06/03 00:52:26;;;;;;;12.23;7.40;;;14.60;99.90;;;;;;4952410;29;20668;-49
2023/06/03 00:54:52;;;;;;;8.33;6.80;;;14.60;99.90;;;;;;4954767;29;20556;-49
2023/06/03 00:57:20;;;;;;;9.00;7.53;;;14.70;99.90;;;;;;4954383;29;20460;-49
2023/06/03 00:59:46;;;;;;;12.13;7.67;;;14.70;99.90;;;;;;4954065;29;20419;-53
2023/06/03 01:02:13;;;;;;;8.27;7.27;;;14.80;99.90;;;;;;4954381;28;20842;-48
2023/06/03 01:04:42;;;;;;;7.80;6.97;;;14.70;99.90;;;;;;4954016;28;20174;-49
2023/06/03 01:07:11;;;;;;;8.17;7.43;;;14.70;99.90;;;;;;4954555;28;20472;-51
2023/06/03 01:09:52;;;;;;;7.60;6.40;;;14.80;99.90;;;;;;4953582;29;20463;-50
2023/06/03 01:12:38;;;;;;;10.10;7.37;;;14.70;99.90;;;;;;4954292;29;20415;-48
2023/06/03 01:15:09;;;;;;;7.97;7.17;;;14.80;99.90;;;;;;4954203;29;20407;-51
2023/06/03 01:17:45;;;;;;;7.80;6.77;;;14.80;99.90;;;;;;4953682;29;20449;-48
2023/06/03 01:20:12;;;;;;;8.80;7.00;;;14.80;99.90;;;;;;4954245;28;20492;-49
2023/06/03 01:22:44;;;;;;;9.37;6.80;;;14.70;99.90;;;;;;4954153;28;20769;-48
2023/06/03 01:25:20;;;;;;;8.87;6.73;;;14.60;99.90;;;;;;4957924;28;20458;-48
2023/06/03 01:27:48;;;;;;;8.80;6.60;;;14.70;99.90;;;;;;4957248;28;20407;-50
2023/06/03 01:30:17;;;;;;;8.10;6.13;;;14.70;99.90;;;;;;4957403;29;21039;-50
2023/06/03 01:32:46;;;;;;;6.80;6.20;;;14.80;99.90;;;;;;4957037;29;20656;-51
2023/06/03 01:35:13;;;;;;;10.20;6.90;;;14.80;99.90;;;;;;4957597;29;20418;-50
2023/06/03 01:37:40;;;;;;;7.50;6.57;;;14.80;99.90;;;;;;4957023;29;20417;-49
2023/06/03 01:40:08;;;;;;;8.73;7.27;;;14.70;99.90;;;;;;4957704;28;20415;-52
2023/06/03 01:42:34;;;;;;;7.90;7.23;;;14.70;99.90;;;;;;4956438;29;20494;-50
2023/06/03 01:45:04;;;;;;;7.53;6.83;;;14.80;99.90;;;;;;4957889;29;20410;-49
2023/06/03 01:47:30;;;;;;;8.27;6.90;;;14.80;99.90;;;;;;4957218;29;20498;-49
2023/06/03 01:49:56;;;;;;;8.40;7.03;;;14.70;99.90;;;;;;4957017;29;20818;-49
2023/06/03 01:52:22;;;;;;;8.03;7.23;;;14.70;99.90;;;;;;4957399;29;20408;-49
2023/06/03 01:54:48;;;;;;;10.70;7.07;;;14.70;99.90;;;;;;4955484;29;20924;-51
2023/06/03 01:57:14;;;;;;;8.60;7.50;;;14.70;99.90;;;;;;4957324;29;20180;-48
2023/06/03 01:59:40;;;;;;;10.80;6.83;;;14.70;99.90;;;;;;4956591;29;20233;-51
2023/06/03 02:02:05;;;;;;;9.93;7.80;;;14.70;99.90;;;;;;4957220;28;20953;-48
2023/06/03 02:04:31;;;;;;;9.77;8.00;;;14.70;99.90;;;;;;4956602;29;20553;-52
2023/06/03 02:07:01;;;;;;;7.47;6.43;;;14.70;99.90;;;;;;4957114;28;20538;-50
2023/06/03 02:09:29;;;;;;;7.80;7.20;;;14.70;99.90;;;;;;4956420;29;20461;-54
2023/06/03 02:11:56;;;;;;;7.57;6.87;;;14.70;99.90;;;;;;4957318;29;20425;-54
2023/06/03 02:14:23;;;;;;;8.20;7.27;;;14.60;99.90;;;;;;4956957;29;20411;-50
2023/06/03 02:16:49;;;;;;;8.40;7.03;;;14.60;99.90;;;;;;4956334;29;20926;-50
2023/06/03 02:19:16;;;;;;;7.87;7.00;;;14.50;99.90;;;;;;4956983;29;20417;-48
2023/06/03 02:21:42;;;;;;;8.30;7.50;;;14.50;99.90;;;;;;4956167;29;20425;-50
2023/06/03 02:24:09;;;;;;;9.30;7.33;;;14.40;99.90;;;;;;4956838;28;20453;-50
2023/06/03 02:27:00;;;;;;;7.90;7.00;;;14.40;99.90;;;;;;4971073;28;20754;-50
2023/06/03 02:29:26;;;;;;;8.20;7.40;;;14.30;99.90;;;;;;4956702;28;20486;-51
2023/06/03 02:31:53;;;;;;;8.53;7.37;;;14.20;99.90;;;;;;4956668;29;20405;-48
2023/06/03 02:34:20;;;;;;;7.97;7.23;;;14.20;99.90;;;;;;4954980;28;20913;-50
2023/06/03 02:36:46;;;;;;;9.10;7.70;;;14.10;99.90;;;;;;4955960;29;20838;-51
2023/06/03 02:39:16;;;;;;;8.13;6.70;;;14.10;99.90;;;;;;4955265;29;20937;-48
2023/06/03 02:41:44;;;;;;;8.00;7.20;;;14.10;99.90;;;;;;4955862;28;20393;-53
2023/06/03 02:44:09;;;;;;;8.40;7.70;;;14.00;99.90;;;;;;4956394;29;20805;-51
2023/06/03 02:46:35;;;;;;;8.97;7.40;;;14.00;99.90;;;;;;4955817;29;20420;-53
2023/06/03 02:49:06;;;;;;;9.13;8.10;;;14.00;99.90;;;;;;4956437;28;20256;-52
2023/06/03 02:51:31;;;;;;;9.87;8.87;;;14.00;99.90;;;;;;4955418;28;20642;-54
2023/06/03 02:53:57;;;;;;;9.50;8.60;;;13.90;99.90;;;;;;4955943;29;20436;-49
2023/06/03 02:56:23;;;;;;;8.40;7.43;;;13.90;99.90;;;;;;4956241;29;20474;-50
2023/06/03 02:58:50;;;;;;;9.60;7.83;;;13.80;99.90;;;;;;4955927;29;20181;-50
2023/06/03 03:01:19;;;;;;;8.00;7.20;;;13.80;99.90;;;;;;4956159;29;20406;-49
2023/06/03 03:03:46;;;;;;;7.70;7.00;;;13.80;99.90;;;;;;4955518;29;20397;-50
2023/06/03 03:06:15;;;;;;;7.87;6.87;;;13.80;99.90;;;;;;4955984;28;20408;-49
2023/06/03 03:08:45;;;;;;;10.97;6.80;;;13.90;99.90;;;;;;4955287;28;20492;-48
2023/06/03 03:11:11;;;;;;;9.10;6.93;;;13.90;99.90;;;;;;4955946;28;20515;-51
2023/06/03 03:13:36;;;;;;;7.57;6.93;;;13.90;99.90;;;;;;4955032;29;20420;-48
2023/06/03 03:16:02;;;;;;;7.47;6.77;;;13.90;99.90;;;;;;4954650;29;20416;-51
2023/06/03 03:18:30;;;;;;;11.97;6.77;;;13.90;99.90;;;;;;4955818;29;20201;-48
2023/06/03 03:20:56;;;;;;;8.20;7.40;;;13.80;99.90;;;;;;4955748;29;20517;-50
2023/06/03 03:23:22;;;;;;;7.27;6.60;;;13.70;99.90;;;;;;4955683;28;20896;-48
2023/06/03 03:25:47;;;;;;;9.00;6.23;;;13.70;99.90;;;;;;4955039;29;20267;-50
2023/06/03 03:28:14;;;;;;;7.33;6.63;;;13.60;99.90;;;;;;4955517;29;20546;-50
2023/06/03 03:30:40;;;;;;;10.50;6.30;;;13.60;99.90;;;;;;4954994;28;20594;-49
2023/06/03 03:33:06;;;;;;;7.57;6.30;;;13.60;99.90;;;;;;4955701;29;20460;-51
2023/06/03 03:35:39;;;;;;;6.73;6.23;;;13.70;99.90;;;;;;4954910;29;20429;-50
2023/06/03 03:38:06;;;;;;;7.17;6.47;;;13.70;99.90;;;;;;4955591;29;20405;-48
2023/06/03 03:40:35;;;;;;;6.57;6.03;;;13.70;99.90;;;;;;4954403;29;20512;-51
2023/06/03 03:43:02;;;;;;;7.13;6.43;;;13.70;99.90;;;;;;4955051;29;20471;-51
2023/06/03 03:45:37;;;;;;;6.50;6.00;;;13.70;99.90;;;;;;4954410;28;20404;-48
2023/06/03 03:48:04;;;;;;;6.90;6.20;;;13.70;99.90;;;;;;4955193;29;20444;-49
2023/06/03 03:50:39;;;;;;;7.07;5.90;;;13.60;99.90;;;;;;4955296;28;20757;-49
2023/06/03 03:53:26;;;;;;;6.67;6.07;;;13.70;99.90;;;;;;4955275;28;20434;-49
2023/06/03 03:55:53;;;;;;;7.53;6.83;;;13.70;99.90;;;;;;4953920;29;20760;-48
2023/06/03 03:58:26;;;;;;;6.83;6.23;;;13.80;99.90;;;;;;4954820;29;20456;-48
2023/06/03 04:00:59;;;;;;;6.83;6.33;;;13.80;99.90;;;;;;4954565;29;20683;-50
2023/06/03 04:03:25;;;;;;;7.73;6.73;;;13.70;99.90;;;;;;4955075;29;20400;-47
2023/06/03 04:05:53;;;;;;;7.10;6.60;;;13.60;99.90;;;;;;4954364;29;20427;-52
2023/06/03 04:08:34;;;;;;;6.87;6.37;;;13.60;99.90;;;;;;4954781;29;20463;-51
2023/06/03 04:11:00;;;;;;;6.60;6.00;;;13.50;99.90;;;;;;4955036;29;20411;-48
2023/06/03 04:13:25;;;;;;;6.97;6.37;;;13.50;99.90;;;;;;4955133;29;20788;-51
2023/06/03 04:15:51;;;;;;;6.60;6.10;;;13.40;99.90;;;;;;4954012;29;20422;-49
2023/06/03 04:18:19;;;;;;;7.83;6.30;;;13.40;99.90;;;;;;4954844;29;20226;-49
2023/06/03 04:20:48;;;;;;;7.23;6.47;;;13.50;99.90;;;;;;4952937;29;20413;-50
2023/06/03 04:23:16;;;;;;;6.40;5.90;;;13.60;99.90;;;;;;4954854;28;20963;-52
2023/06/03 04:25:43;;;;;;;6.90;5.70;;;13.60;99.90;;;;;;4954427;29;20420;-52
2023/06/03 04:28:12;;;;;;;6.57;5.97;;;13.70;99.90;;;;;;4954449;29;20455;-50
2023/06/03 04:30:38;;;;;;;6.53;5.93;;;13.70;99.90;;;;;;4953602;28;20427;-50
2023/06/03 04:33:04;;;;;;;7.03;6.40;;;13.70;99.90;;;;;;4954676;29;20407;-49
2023/06/03 04:35:30;;;;;;;6.40;6.00;;;13.80;99.90;;;;;;4954604;28;20425;-48
2023/06/03 04:37:58;;;;;;;7.30;6.70;;;13.80;99.90;;;;;;4954041;29;20889;-50
2023/06/03 04:40:24;;;;;;;6.70;6.10;;;13.90;99.90;;;;;;4954546;28;20759;-51
2023/06/03 04:42:50;;;;;;;6.93;6.27;;;13.90;99.90;;;;;;4953504;29;20487;-48
2023/06/03 04:45:16;;;;;;;6.50;5.90;;;13.90;99.90;;;;;;4954704;28;20182;-52
2023/06/03 04:47:41;;;;;;;7.93;5.83;;;13.90;99.90;;;;;;4953945;29;20421;-50
2023/06/03 04:50:10;;;;;;;6.80;5.13;;;13.90;99.90;;;;;;4954459;29;20768;-48
2023/06/03 04:52:36;;;;;;;6.23;5.70;;;13.80;99.90;;;;;;4953900;29;20173;-57
2023/06/03 04:55:02;;;;;;;6.80;6.30;;;13.80;99.90;;;;;;4954665;29;20431;-50
2023/06/03 04:57:28;;;;;;;6.27;5.63;;;13.90;99.90;;;;;;4956294;28;20181;-50
2023/06/03 04:59:54;;;;;;;5.53;5.20;;;13.90;99.90;;;;;;4957785;29;20825;-49
2023/06/03 05:02:23;;;;;;;5.63;5.20;;;14.00;99.90;;;;;;4958358;28;20169;-49
2023/06/03 05:04:50;;;;;;;5.90;5.40;;;14.10;99.90;;;;;;4957944;28;20968;-53
2023/06/03 05:07:16;;;;;;;6.90;6.23;;;14.10;99.90;;;;;;4958197;28;20420;-49
2023/06/03 05:09:42;;;;;;;5.30;4.80;;;14.10;99.90;;;;;;4957599;29;20463;-49
2023/06/03 05:12:09;;;;;;;6.53;5.70;;;14.20;99.90;;;;;;4958151;29;20226;-49
2023/06/03 05:14:35;;;;;;;7.37;6.67;;;14.20;99.80;;;;;;4958199;28;20188;-51
2023/06/03 05:17:01;;;;;;;5.60;5.20;;;14.30;99.70;;;;;;4957422;28;20413;-48
2023/06/03 05:19:26;;;;;;;6.93;6.23;;;14.30;99.40;;;;;;4958036;29;20277;-47
2023/06/03 05:21:52;;;;;;;6.00;5.50;;;14.30;99.10;;;;;;4957383;29;20227;-48
2023/06/03 05:24:18;;;;;;;7.70;7.10;;;14.30;99.50;;;;;;4958029;29;20169;-51
2023/06/03 05:26:43;;;;;;;6.83;6.17;;;14.40;98.60;;;;;;4957329;29;20187;-49
2023/06/03 05:29:09;;;;;;;7.43;6.80;;;14.40;98.60;;;;;;4957746;29;20209;-49
2023/06/03 05:31:35;;;;;;;6.80;6.23;;;14.40;98.80;;;;;;4957847;28;20192;-49
2023/06/03 05:34:00;;;;;;;7.03;6.17;;;14.30;98.90;;;;;;4957402;29;20192;-49
2023/06/03 05:36:26;;;;;;;6.93;6.23;;;14.40;98.90;;;;;;4957838;29;20185;-51
2023/06/03 05:38:52;;;;;;;9.83;6.17;;;14.40;98.20;;;;;;4955862;29;20194;-48
2023/06/03 05:41:18;;;;;;;5.83;5.33;;;14.30;98.00;;;;;;4957415;29;20627;-51
2023/06/03 05:43:43;;;;;;;5.87;5.37;;;14.40;98.00;;;;;;4956749;29;20229;-48
2023/06/03 05:46:10;;;;;;;5.73;5.20;;;14.50;97.80;;;;;;4957795;29;20275;-50
2023/06/03 05:48:36;;;;;;;5.50;5.00;;;14.50;98.10;;;;;;4957425;29;20702;-51
2023/06/03 05:51:02;;;;;;;5.27;4.77;;;14.60;97.90;;;;;;4956940;29;20406;-49
2023/06/03 05:53:27;;;;;;;6.10;4.60;;;14.60;98.20;;;;;;4957454;29;20212;-52
2023/06/03 05:55:53;;;;;;;5.10;4.63;;;14.70;98.00;;;;;;4956801;29;20210;-49
2023/06/03 05:58:20;;;;;;;5.30;4.87;;;14.80;97.40;;;;;;4957314;29;20187;-48
2023/06/03 06:00:47;;;;;;;5.37;4.60;;;14.90;96.90;;;;;;4956755;29;20418;-51
2023/06/03 06:03:13;;;;;;;4.83;4.43;;;14.90;96.60;;;;;;4957498;29;20418;-52
2023/06/03 06:05:40;;;;;;;5.50;5.00;;;14.90;96.80;;;;;;4957325;28;20751;-51
2023/06/03 06:08:06;;;;;;;5.07;4.43;;;15.00;96.20;;;;;;4956850;28;20419;-50
2023/06/03 06:10:31;;;;;;;4.47;4.10;;;15.00;96.00;;;;;;4956807;29;20430;-49
2023/06/03 06:12:57;;;;;;;4.07;3.87;;;15.10;96.20;;;;;;4956861;29;20178;-48
2023/06/03 06:15:23;;;;;;;4.30;4.00;;;15.00;94.80;;;;;;4957023;29;20184;-48
2023/06/03 06:17:48;;;;;;;5.03;4.60;;;14.90;95.50;;;;;;4956421;29;20258;-50
2023/06/03 06:20:14;;;;;;;5.60;4.80;;;15.10;96.00;;;;;;4956977;29;20177;-53
2023/06/03 06:22:40;;;;;;;4.50;3.90;;;15.20;95.20;;;;;;4956653;28;20580;-50
2023/06/03 06:25:08;;;;;;;7.30;3.80;;;15.30;95.10;;;;;;4956693;29;20415;-50
2023/06/03 06:27:34;;;;;;;3.90;3.60;;;15.40;95.30;;;;;;4956947;29;20453;-50
2023/06/03 06:30:00;;;;;;;5.50;3.30;;;15.50;94.30;;;;;;4956180;29;20460;-49
2023/06/03 06:32:26;;;;;;;4.40;4.00;;;15.50;92.90;;;;;;4956892;28;20422;-53
2023/06/03 06:34:53;;;;;;;4.13;3.93;;;15.50;92.50;;;;;;4956349;29;20802;-49
2023/06/03 06:37:19;;;;;;;3.70;3.50;;;15.50;92.80;;;;;;4956430;29;20420;-53
2023/06/03 06:39:50;;;;;;;3.67;3.20;;;15.60;92.20;;;;;;4956039;29;20425;-49
2023/06/03 06:42:33;;;;;;;3.50;3.20;;;15.70;90.90;;;;;;4956593;28;20884;-50
2023/06/03 06:45:10;;;;;;;4.90;4.17;;;15.70;90.50;;;;;;4956050;29;20412;-50
2023/06/03 06:47:37;;;;;;;3.90;3.63;;;15.70;91.60;;;;;;4956513;29;20400;-47
2023/06/03 06:50:07;;;;;;;3.47;3.17;;;15.70;90.60;;;;;;4955827;28;21252;-52
2023/06/03 06:52:34;;;;;;;3.70;3.33;;;15.80;90.80;;;;;;4956411;28;20398;-51
2023/06/03 06:55:00;;;;;;;3.57;3.23;;;15.90;90.90;;;;;;4955740;29;20404;-48
2023/06/03 06:57:28;;;;;;;3.80;3.50;;;15.90;89.20;;;;;;4954873;29;20474;-52
2023/06/03 06:59:54;;;;;;;3.47;3.27;;;15.90;88.90;;;;;;4955904;29;20416;-50
2023/06/03 07:02:21;;;;;;;4.40;3.53;;;16.00;89.60;;;;;;4956194;29;20893;-48
2023/06/03 07:04:50;;;;;;;3.67;3.37;;;16.10;88.20;;;;;;4954279;29;20417;-49
2023/06/03 07:07:17;;;;;;;3.77;3.47;;;16.10;88.50;;;;;;4956187;29;20413;-48
2023/06/03 07:09:43;;;;;;;5.00;4.00;;;16.20;89.10;;;;;;4956011;28;20452;-49
2023/06/03 07:12:10;;;;;;;3.30;3.10;;;16.40;89.10;;;;;;4955869;29;20452;-53
2023/06/03 07:14:36;;;;;;;3.40;3.10;;;16.50;87.90;;;;;;4954818;29;20429;-50
2023/06/03 07:17:02;;;;;;;3.40;3.20;;;16.60;85.90;;;;;;4955000;29;20893;-52
2023/06/03 07:19:37;;;;;;;3.90;3.50;;;16.70;86.10;;;;;;4955808;28;20421;-49
2023/06/03 07:22:04;;;;;;;3.67;3.10;;;16.90;85.50;;;;;;4954198;28;20165;-50
2023/06/03 07:24:32;;;;;;;3.97;3.53;;;17.00;84.10;;;;;;4955669;29;20409;-50
2023/06/03 07:27:00;;;;;;;3.40;3.20;;;17.00;82.10;;;;;;4955494;28;20412;-49
2023/06/03 07:29:30;;;;;;;3.90;3.60;;;17.00;83.00;;;;;;4955810;29;20903;-49
2023/06/03 07:31:55;;;;;;;2.93;2.80;;;17.10;82.30;;;;;;4955046;29;20403;-49
2023/06/03 07:34:22;;;;;;;4.07;3.77;;;17.20;83.20;;;;;;4955546;29;20520;-53
2023/06/03 07:36:52;;;;;;;3.27;3.07;;;17.30;85.20;;;;;;4955052;28;20224;-48
2023/06/03 07:39:21;;;;;;;4.40;3.90;;;17.40;83.60;;;;;;4955612;29;20409;-51
2023/06/03 07:41:51;;;;;;;3.57;3.27;;;17.60;82.90;;;;;;4954843;28;20467;-49
2023/06/03 07:44:47;;;;;;;4.60;3.90;;;17.80;82.00;;;;;;4955483;29;20487;-49
2023/06/03 07:47:15;;;;;;;3.90;3.63;;;17.90;80.60;;;;;;4955397;29;20463;-49
2023/06/03 07:49:48;;;;;;;5.50;4.87;;;18.00;80.80;;;;;;4955169;29;20444;-52
2023/06/03 07:52:21;;;;;;;4.33;3.87;;;18.10;81.00;;;;;;4955145;29;20766;-50
2023/06/03 07:54:48;;;;;;;3.20;3.00;;;18.30;79.70;;;;;;4954707;28;20404;-49
2023/06/03 07:57:15;;;;;;;3.40;3.20;;;18.30;78.60;;;;;;4955194;29;20416;-50
2023/06/03 07:59:55;;;;;;;3.87;3.57;;;18.50;79.00;;;;;;4954876;29;20897;-50
2023/06/03 08:02:22;;;;;;;3.53;2.97;;;18.50;75.90;;;;;;4955004;28;20427;-51
2023/06/03 08:04:49;;;;;;;3.00;2.90;;;18.60;77.30;;;;;;4954189;29;20409;-56
2023/06/03 08:07:15;;;;;;;3.40;3.13;;;18.70;78.20;;;;;;4954166;29;20805;-48
2023/06/03 08:09:41;;;;;;;3.73;3.53;;;18.80;76.70;;;;;;4954927;28;20975;-50
2023/06/03 08:12:09;;;;;;;3.70;3.40;;;19.00;77.10;;;;;;4954180;29;20420;-48
2023/06/03 08:14:36;;;;;;;3.50;3.30;;;19.20;76.60;;;;;;4954914;29;20193;-49
2023/06/03 08:17:12;;;;;;;4.40;3.03;;;19.30;76.90;;;;;;4954585;29;20439;-48
2023/06/03 08:19:39;;;;;;;3.60;3.20;;;19.40;76.00;;;;;;4954865;28;20401;-49
2023/06/03 08:22:35;;;;;;;2.90;2.70;;;19.50;77.20;;;;;;4952977;28;20420;-50
2023/06/03 08:25:00;;;;;;;3.33;3.13;;;19.70;75.40;;;;;;4954170;29;20780;-49
2023/06/03 08:27:26;;;;;;;3.07;2.87;;;19.80;75.00;;;;;;4954460;29;20405;-52
2023/06/03 08:29:52;;;;;;;3.93;3.53;;;19.80;74.80;;;;;;4954006;29;20212;-48
2023/06/03 08:32:18;;;;;;;4.00;3.70;;;20.00;73.60;;;;;;4954339;28;20181;-51
2023/06/03 08:34:43;;;;;;;3.50;3.30;;;20.00;70.90;;;;;;4954726;29;20409;-50
2023/06/03 08:37:09;;;;;;;3.10;2.87;;;20.00;73.40;;;;;;4954011;29;20514;-51
2023/06/03 08:39:35;;;;;;;2.87;2.70;;;20.10;75.40;;;;;;4954684;28;20188;-50
2023/06/03 08:42:06;;;;;;;5.63;3.00;;;20.10;75.10;;;;;;4952630;29;20185;-51
2023/06/03 08:45:02;;;;;;;3.70;3.40;;;20.30;74.10;;;;;;4954666;29;20467;-52
2023/06/03 08:47:50;;;;;;;5.40;3.33;;;20.40;73.00;;;;;;4954475;29;20477;-52
2023/06/03 08:50:21;;;;;;;3.20;3.00;;;20.50;73.90;;;;;;4954668;28;20459;-48
2023/06/03 08:52:51;;;;;;;3.57;3.13;;;20.50;72.20;;;;;;4954651;28;20397;-50
2023/06/03 08:55:17;;;;;;;6.50;3.10;;;20.60;73.30;;;;;;4954152;29;20908;-51
2023/06/03 08:58:02;;;;;;;3.63;3.43;;;20.60;73.80;;;;;;4954745;29;20401;-48
2023/06/03 09:00:28;;;;;;;5.30;4.77;;;20.60;71.10;;;;;;4954826;28;20405;-50
2023/06/03 09:02:55;;;;;;;4.00;3.80;;;20.80;72.20;;;;;;4953574;28;20783;-49
2023/06/03 09:05:21;;;;;;;3.87;3.57;;;20.90;73.20;;;;;;4954063;29;20943;-48
2023/06/03 09:07:48;;;;;;;3.60;3.30;;;21.00;71.60;;;;;;4954364;29;20405;-49
2023/06/03 09:10:16;;;;;;;3.67;3.47;;;20.90;71.50;;;;;;4953679;28;20460;-50
2023/06/03 09:12:44;;;;;;;5.80;3.80;;;21.00;71.20;;;;;;4954352;28;20412;-51
2023/06/03 09:15:14;;;;;;;3.60;3.40;;;21.10;73.80;;;;;;4953653;29;20424;-52
2023/06/03 09:17:41;;;;;;;5.50;5.10;;;21.40;72.70;;;;;;4954258;28;20401;-50
2023/06/03 09:20:08;;;;;;;3.13;2.90;;;21.50;72.80;;;;;;4953709;28;20409;-53
2023/06/03 09:22:36;;;;;;;3.27;3.07;;;21.60;70.80;;;;;;4954303;29;20416;-50
2023/06/03 09:25:02;;;;;;;3.10;2.87;;;21.70;70.30;;;;;;4953607;29;20488;-48
2023/06/03 09:27:28;;;;;;;3.27;3.07;;;21.70;69.50;;;;;;4954631;29;20471;-48
2023/06/03 09:29:55;;;;;;;6.27;3.03;;;21.60;67.00;;;;;;4953497;29;20963;-48
2023/06/03 09:32:21;;;;;;;3.00;2.80;;;21.70;67.80;;;;;;4954426;29;20205;-48
2023/06/03 09:34:48;;;;;;;3.00;2.80;;;21.60;67.10;;;;;;4954147;29;20471;-49
2023/06/03 09:37:15;;;;;;;2.70;2.60;;;21.50;66.40;;;;;;4953450;28;20509;-51
2023/06/03 09:39:41;;;;;;;3.10;2.80;;;21.70;67.90;;;;;;4954040;29;20427;-50
2023/06/03 09:42:08;;;;;;;2.80;2.60;;;21.80;68.00;;;;;;4953356;29;20417;-50
2023/06/03 09:44:45;;;;;;;3.80;2.80;;;22.00;72.10;;;;;;4955983;28;20982;-50
2023/06/03 09:47:12;;;;;;;3.20;2.70;;;22.10;66.20;;;;;;4957110;28;20400;-49
2023/06/03 09:49:38;;;;;;;4.23;3.60;;;22.20;65.60;;;;;;4957542;28;20460;-48
2023/06/03 09:52:09;;;;;;;3.47;3.27;;;22.30;68.40;;;;;;4956595;29;20831;-49
2023/06/03 09:54:35;;;;;;;3.77;3.47;;;22.40;67.40;;;;;;4957437;28;20405;-53
2023/06/03 09:57:19;;;;;;;5.23;3.20;;;22.50;66.70;;;;;;4956906;29;20467;-52
2023/06/03 09:59:45;;;;;;;3.50;3.00;;;22.50;65.10;;;;;;4957464;28;20405;-52
2023/06/03 10:02:11;;;;;;;3.10;2.90;;;22.60;68.90;;;;;;4956746;29;20435;-49
2023/06/03 10:04:44;;;;;;;3.93;3.20;;;22.80;70.50;;;;;;4957341;29;20175;-50
2023/06/03 10:07:16;;;;;;;3.70;3.40;;;22.90;64.00;;;;;;4956604;28;20772;-49
2023/06/03 10:09:46;;;;;;;3.03;2.83;;;23.00;65.90;;;;;;4957131;28;21015;-54
2023/06/03 10:12:14;;;;;;;3.00;2.77;;;23.00;61.80;;;;;;4956858;28;20413;-49
2023/06/03 10:14:50;;;;;;;3.27;3.10;;;23.10;63.30;;;;;;4957157;29;20417;-52
2023/06/03 10:17:17;;;;;;;2.73;2.53;;;23.10;61.00;;;;;;4956191;29;20515;-49
2023/06/03 10:19:45;;;;;;;2.70;2.60;;;23.30;66.30;;;;;;4956999;28;20417;-49
2023/06/03 10:22:13;;;;;;;5.03;2.80;;;23.40;63.50;;;;;;4956377;29;20799;-51
2023/06/03 10:24:42;;;;;;;2.93;2.73;;;23.40;59.60;;;;;;4956938;29;20408;-53
2023/06/03 10:27:12;;;;;;;3.90;3.10;;;23.30;59.60;;;;;;4956258;29;20404;-54
2023/06/03 10:29:39;;;;;;;3.80;3.50;;;23.20;61.50;;;;;;4956793;29;20515;-53
2023/06/03 10:32:10;;;;;;;3.10;2.90;;;23.00;58.00;;;;;;4956468;28;20459;-51
2023/06/03 10:34:39;;;;;;;2.93;2.70;;;23.00;61.80;;;;;;4956471;29;20892;-53
2023/06/03 10:37:06;;;;;;;2.93;2.73;;;23.10;59.00;;;;;;4956078;29;20445;-53
2023/06/03 10:39:32;;;;;;;4.37;3.90;;;23.20;60.90;;;;;;4956663;29;20421;-49
2023/06/03 10:42:07;;;;;;;4.60;3.47;;;23.30;58.00;;;;;;4955811;28;20488;-50
2023/06/03 10:44:33;;;;;;;5.23;4.60;;;23.20;57.60;;;;;;4956713;29;20448;-51
2023/06/03 10:47:16;;;;;;;3.60;3.30;;;23.20;58.40;;;;;;4955908;28;20428;-51
2023/06/03 10:49:50;;;;;;;3.77;3.47;;;23.30;58.50;;;;;;4956430;29;20200;-52
2023/06/03 10:52:48;;;;;;;5.30;3.80;;;23.40;58.90;;;;;;4956202;28;20453;-49
2023/06/03 10:55:45;;;;;;;3.60;3.30;;;23.50;57.60;;;;;;4955578;28;20397;-54
2023/06/03 10:58:14;;;;;;;2.80;2.70;;;23.60;57.80;;;;;;4939159;29;20419;-51
2023/06/03 11:01:03;;;;;;;2.90;2.80;;;23.70;58.70;;;;;;4956537;29;20448;-49
2023/06/03 11:03:54;;;;;;;3.80;3.40;;;23.80;58.00;;;;;;4956331;29;20397;-52
2023/06/03 11:06:25;;;;;;;3.27;3.10;;;23.90;57.40;;;;;;4955185;28;20817;-54
2023/06/03 11:09:03;;;;;;;3.10;2.90;;;23.90;56.70;;;;;;4956219;28;20448;-51
2023/06/03 11:11:41;;;;;;;4.43;4.03;;;23.70;56.50;;;;;;4955988;28;20397;-54
2023/06/03 11:14:08;;;;;;;4.13;3.83;;;23.70;56.70;;;;;;4955492;29;20511;-51
2023/06/03 11:17:01;;;;;;;4.97;4.67;;;23.80;57.70;;;;;;4954674;29;20472;-55
2023/06/03 11:19:28;;;;;;;4.03;3.50;;;23.80;57.30;;;;;;4955823;28;20432;-50
2023/06/03 11:21:55;;;;;;;3.73;3.53;;;23.90;56.20;;;;;;4955606;29;20468;-49
2023/06/03 11:24:39;;;;;;;3.70;3.40;;;24.00;56.50;;;;;;4955295;28;20409;-51
2023/06/03 11:27:13;;;;;;;5.53;3.77;;;24.10;56.90;;;;;;4953957;29;20839;-49
2023/06/03 11:29:57;;;;;;;3.50;3.30;;;24.30;55.30;;;;;;4955495;28;20927;-51
2023/06/03 11:32:35;;;;;;;3.10;3.00;;;24.30;54.70;;;;;;4955168;28;20496;-52
2023/06/03 11:35:03;;;;;;;3.10;2.97;;;24.10;54.20;;;;;;4954849;29;20500;-54
2023/06/03 11:37:41;;;;;;;3.60;3.40;;;24.00;53.50;;;;;;4955389;29;20417;-50
2023/06/03 11:40:18;;;;;;;3.37;3.17;;;23.90;55.00;;;;;;4955292;29;20523;-49
2023/06/03 11:42:47;;;;;;;3.30;3.17;;;24.00;54.00;;;;;;4955185;29;20415;-51
2023/06/03 11:45:19;;;;;;;3.87;3.67;;;23.90;52.40;;;;;;4955173;29;20408;-51
2023/06/03 11:47:51;;;;;;;3.73;3.53;;;24.00;54.70;;;;;;4955354;28;20772;-54
2023/06/03 11:50:19;;;;;;;3.43;3.13;;;24.10;54.60;;;;;;4954633;29;20463;-51
2023/06/03 11:52:44;;;;;;;3.40;3.20;;;24.10;53.40;;;;;;4955422;29;20407;-50
2023/06/03 11:55:10;;;;;;;3.53;3.23;;;24.20;54.20;;;;;;4954681;28;20413;-49
2023/06/03 11:57:39;;;;;;;3.73;3.37;;;24.30;53.40;;;;;;4955392;29;20416;-51
2023/06/03 12:00:09;;;;;;;3.50;3.30;;;24.40;54.50;;;;;;4953474;29;20416;-52
2023/06/03 12:02:40;;;;;;;3.43;3.23;;;24.40;52.70;;;;;;4955118;28;20400;-55
2023/06/03 12:05:07;;;;;;;5.57;3.77;;;24.40;52.80;;;;;;4954518;29;20448;-54
2023/06/03 12:07:33;;;;;;;4.07;3.77;;;24.50;53.10;;;;;;4954510;28;20463;-51
2023/06/03 12:09:59;;;;;;;4.63;4.20;;;24.50;50.90;;;;;;4953952;29;20456;-51
2023/06/03 12:12:25;;;;;;;3.57;3.27;;;24.50;52.00;;;;;;4954226;28;20436;-51
2023/06/03 12:14:51;;;;;;;3.43;3.23;;;24.50;53.00;;;;;;4955002;29;20823;-50
2023/06/03 12:17:19;;;;;;;2.90;2.70;;;24.60;52.80;;;;;;4969148;28;20413;-51
2023/06/03 12:19:48;;;;;;;3.40;3.20;;;24.50;51.50;;;;;;4954909;28;20240;-51
2023/06/03 12:22:21;;;;;;;3.07;2.93;;;24.50;52.50;;;;;;4954314;29;20409;-50
2023/06/03 12:24:48;;;;;;;3.50;3.20;;;24.50;50.40;;;;;;4954846;28;20877;-48
2023/06/03 12:27:22;;;;;;;3.57;3.37;;;24.50;51.90;;;;;;4954458;29;20423;-55
2023/06/03 12:29:56;;;;;;;3.00;2.90;;;24.50;53.30;;;;;;4954697;28;20468;-54
2023/06/03 12:32:31;;;;;;;3.90;3.60;;;24.50;49.50;;;;;;4954152;28;20411;-55
2023/06/03 12:35:09;;;;;;;3.43;3.23;;;24.30;51.30;;;;;;4955041;29;20904;-54
2023/06/03 12:37:37;;;;;;;3.30;3.13;;;24.30;49.90;;;;;;4954771;29;20393;-52
2023/06/03 12:40:03;;;;;;;3.50;3.23;;;24.20;50.00;;;;;;4954644;29;20871;-50
2023/06/03 12:42:43;;;;;;;3.70;3.40;;;24.10;50.30;;;;;;4954602;29;20408;-51
2023/06/03 12:45:09;;;;;;;4.00;3.80;;;24.10;50.90;;;;;;4954027;28;20420;-51
2023/06/03 12:47:46;;;;;;;3.50;3.30;;;24.10;49.90;;;;;;4954574;29;20460;-50
2023/06/03 12:50:13;;;;;;;3.53;3.33;;;24.10;51.10;;;;;;4953895;29;20448;-50
2023/06/03 12:52:40;;;;;;;3.93;3.63;;;24.20;50.50;;;;;;4954504;28;20411;-49
2023/06/03 12:55:12;;;;;;;3.63;3.33;;;24.20;50.20;;;;;;4953842;28;20401;-59